Terminal Aerodrome Forecast
Issued by NWS Wakefield, VA

Home | Current Version | Previous Version | Text Only | Print | Product List | Glossary On
Versions: 1 2 3 4 5 6 7 8 9 10 11 12 13 14 15 16 17 18 19 20 21 22 23 24
663
FTUS41 KAKQ 291725
TAFSBY
TAF
KSBY 291725Z 2918/3018 05006KT 3SM BR BKN006 OVC012
     FM300200 02008KT 5SM BR OVC003
     FM300500 02007KT 2SM -DZ BR OVC003
     FM301500 05008KT P6SM OVC015=

USA.gov is the U.S. government's official web portal to all federal, state and local government web resources and services.